createdAt,value
2022-10-03T03:59:14.527Z,0.00
2022-10-03T04:00:12.902Z,0.00
2022-10-03T04:01:12.992Z,0.00
2022-10-03T04:02:12.928Z,0.00
2022-10-03T04:03:12.884Z,0.00
2022-10-03T04:04:14.509Z,0.00
2022-10-03T04:05:12.868Z,0.00
2022-10-03T04:06:12.910Z,0.00
2022-10-03T04:07:12.861Z,0.00
2022-10-03T04:08:12.882Z,0.00
2022-10-03T04:09:14.509Z,0.00
2022-10-03T04:10:14.509Z,0.00
2022-10-03T04:11:14.512Z,0.00
2022-10-03T04:12:14.498Z,0.00
2022-10-03T04:13:14.520Z,0.00
2022-10-03T04:14:14.518Z,0.00
2022-10-03T04:15:14.540Z,0.00
2022-10-03T04:16:14.538Z,0.00
2022-10-03T04:17:14.506Z,0.00
2022-10-03T04:18:14.523Z,0.00
2022-10-03T04:19:14.543Z,0.00
2022-10-03T04:20:14.514Z,0.00
2022-10-03T04:21:18.785Z,0.00
2022-10-03T04:22:14.507Z,0.00
2022-10-03T04:23:14.531Z,0.00
2022-10-03T04:24:13.792Z,0.00
2022-10-03T04:25:14.552Z,0.00
2022-10-03T04:26:14.513Z,0.00
2022-10-03T04:27:14.510Z,0.00
2022-10-03T04:28:14.618Z,0.00
2022-10-03T04:29:14.524Z,0.00
2022-10-03T04:30:12.775Z,0.00
2022-10-03T04:31:12.768Z,0.00
2022-10-03T04:32:12.757Z,0.00
2022-10-03T04:33:12.765Z,0.00
2022-10-03T04:34:14.531Z,0.00
2022-10-03T04:35:12.762Z,0.00
2022-10-03T04:36:12.762Z,0.00
2022-10-03T04:37:12.749Z,0.00
2022-10-03T04:38:12.751Z,0.00
2022-10-03T04:39:14.550Z,0.00
2022-10-03T04:40:12.754Z,0.00
2022-10-03T04:41:12.730Z,0.00
2022-10-03T04:42:12.720Z,0.00
2022-10-03T04:43:14.530Z,0.00
2022-10-03T04:44:15.058Z,0.00
2022-10-03T04:45:13.718Z,0.00
2022-10-03T04:46:13.829Z,0.00
2022-10-03T04:47:14.547Z,0.00
2022-10-03T04:48:13.720Z,0.00
2022-10-03T04:49:14.555Z,0.00
2022-10-03T04:50:13.702Z,0.00
2022-10-03T04:51:14.533Z,0.00
2022-10-03T04:52:12.699Z,0.00
2022-10-03T04:53:14.559Z,0.00
2022-10-03T04:54:15.047Z,0.00
2022-10-03T04:55:12.685Z,0.00
2022-10-03T04:56:14.542Z,0.00
2022-10-03T04:57:12.693Z,0.00
2022-10-03T04:58:13.684Z,0.00
2022-10-03T04:59:14.055Z,0.00
2022-10-03T05:00:14.561Z,0.00
2022-10-03T05:01:13.714Z,0.00
2022-10-03T05:02:12.801Z,0.00
2022-10-03T05:03:12.852Z,0.00
2022-10-03T05:04:12.657Z,0.00
2022-10-03T05:05:15.101Z,0.00
2022-10-03T05:06:13.677Z,0.00
2022-10-03T05:07:12.690Z,0.00
2022-10-03T05:08:12.640Z,0.00
2022-10-03T05:09:14.060Z,0.00
2022-10-03T05:10:14.559Z,4.00
2022-10-03T05:11:12.638Z,4.00
2022-10-03T05:12:12.637Z,0.00
2022-10-03T05:13:12.623Z,0.00
2022-10-03T05:14:14.595Z,4.00
2022-10-03T05:15:14.565Z,4.00
2022-10-03T05:16:14.714Z,4.00
2022-10-03T05:17:14.546Z,4.00
2022-10-03T05:18:14.561Z,4.00
2022-10-03T05:19:14.592Z,8.00
2022-10-03T05:20:14.567Z,8.00
2022-10-03T05:21:14.566Z,12.00
2022-10-03T05:22:14.578Z,12.00
2022-10-03T05:23:14.583Z,12.00
2022-10-03T05:24:14.575Z,16.00
2022-10-03T05:25:14.595Z,16.00
2022-10-03T05:26:43.030Z,20.00
2022-10-03T05:27:14.570Z,24.00
2022-10-03T05:28:13.633Z,24.00
2022-10-03T05:29:14.072Z,32.00
2022-10-03T05:30:12.590Z,32.00
2022-10-03T05:31:14.126Z,36.00
2022-10-03T05:32:12.574Z,40.00
2022-10-03T05:33:14.588Z,40.00
2022-10-03T05:34:12.603Z,48.00
2022-10-03T05:35:12.577Z,52.00
2022-10-03T05:36:12.566Z,56.00
2022-10-03T05:37:14.091Z,60.00
2022-10-03T05:38:12.578Z,68.00
2022-10-03T05:39:12.575Z,72.00
2022-10-03T05:40:14.124Z,76.00
2022-10-03T05:41:12.557Z,84.00
2022-10-03T05:42:22.601Z,88.00
2022-10-03T05:43:12.546Z,92.00
2022-10-03T05:44:14.105Z,100.00
2022-10-03T05:45:14.084Z,104.00
2022-10-03T05:46:12.623Z,112.00
2022-10-03T05:47:14.073Z,120.00
2022-10-03T05:48:14.087Z,128.00
2022-10-03T05:49:14.108Z,136.00
2022-10-03T05:50:18.079Z,140.00
2022-10-03T05:51:14.090Z,148.00
2022-10-03T05:52:14.215Z,152.00
2022-10-03T05:53:14.082Z,164.00
2022-10-03T05:54:14.096Z,172.00
2022-10-03T05:55:14.089Z,180.00
2022-10-03T05:56:12.500Z,188.00
2022-10-03T05:57:14.165Z,200.00
2022-10-03T05:58:14.096Z,208.00
2022-10-03T05:59:12.508Z,220.00
2022-10-03T06:00:12.493Z,232.00
2022-10-03T06:01:13.616Z,240.00
2022-10-03T06:02:12.534Z,252.00
2022-10-03T06:03:14.165Z,264.00
2022-10-03T06:04:12.485Z,280.00
2022-10-03T06:05:12.505Z,296.00
2022-10-03T06:06:12.489Z,320.00
2022-10-03T06:07:12.490Z,340.00
2022-10-03T06:08:14.607Z,360.00
2022-10-03T06:09:12.487Z,372.00
2022-10-03T06:10:12.467Z,388.00
2022-10-03T06:11:14.111Z,404.00
2022-10-03T06:12:12.458Z,424.00
2022-10-03T06:13:14.184Z,448.00
2022-10-03T06:14:12.460Z,464.00
2022-10-03T06:15:14.118Z,476.00
2022-10-03T06:16:13.521Z,492.00
2022-10-03T06:17:12.462Z,512.00
2022-10-03T06:18:13.443Z,536.00
2022-10-03T06:19:14.126Z,568.00
2022-10-03T06:20:14.120Z,604.00
2022-10-03T06:21:12.438Z,632.00
2022-10-03T06:22:14.227Z,660.00
2022-10-03T06:23:13.427Z,676.00
2022-10-03T06:24:14.141Z,700.00
2022-10-03T06:25:13.438Z,768.00
2022-10-03T06:26:14.112Z,844.00
2022-10-03T06:27:14.116Z,800.00
2022-10-03T06:28:14.175Z,804.00
2022-10-03T06:29:14.117Z,860.00
2022-10-03T06:30:14.133Z,1324.00
2022-10-03T06:31:14.201Z,972.00
2022-10-03T06:32:14.121Z,1036.00
2022-10-03T06:33:13.428Z,880.00
2022-10-03T06:34:13.635Z,880.00
2022-10-03T06:35:13.420Z,1116.00
2022-10-03T06:36:12.401Z,976.00
2022-10-03T06:37:12.384Z,972.00
2022-10-03T06:38:14.143Z,1064.00
2022-10-03T06:39:13.386Z,1036.00
2022-10-03T06:40:12.399Z,1080.00
2022-10-03T06:41:14.148Z,1208.00
2022-10-03T06:42:12.407Z,1156.00
2022-10-03T06:43:14.139Z,1268.00
2022-10-03T06:44:13.363Z,1300.00
2022-10-03T06:45:12.367Z,1704.00
2022-10-03T06:46:14.175Z,1156.00
2022-10-03T06:47:14.123Z,1276.00
2022-10-03T06:48:14.156Z,1496.00
2022-10-03T06:49:14.132Z,1496.00
2022-10-03T06:50:14.125Z,1936.00
2022-10-03T06:51:14.132Z,1888.00
2022-10-03T06:52:14.158Z,1216.00
2022-10-03T06:53:14.152Z,2484.00
2022-10-03T06:54:12.446Z,2148.00
2022-10-03T06:55:14.137Z,1184.00
2022-10-03T06:56:14.149Z,1388.00
2022-10-03T06:57:14.159Z,2128.00
2022-10-03T06:58:14.177Z,2436.00
2022-10-03T06:59:14.157Z,1324.00
2022-10-03T07:00:14.137Z,1376.00
2022-10-03T07:01:12.406Z,1232.00
2022-10-03T07:02:12.403Z,1248.00
2022-10-03T07:03:13.662Z,1348.00
2022-10-03T07:04:13.670Z,1340.00
2022-10-03T07:05:12.326Z,1356.00
2022-10-03T07:06:12.328Z,1532.00
2022-10-03T07:07:14.163Z,1704.00
2022-10-03T07:08:12.309Z,1508.00
2022-10-03T07:09:13.677Z,1336.00
2022-10-03T07:10:12.315Z,1244.00
2022-10-03T07:11:12.307Z,1188.00
2022-10-03T07:12:14.402Z,1168.00
2022-10-03T07:13:13.682Z,1152.00
2022-10-03T07:14:14.178Z,1144.00
2022-10-03T07:15:12.307Z,1140.00
2022-10-03T07:16:26.394Z,1148.00
2022-10-03T07:17:12.337Z,1164.00
2022-10-03T07:18:14.184Z,1192.00
2022-10-03T07:19:14.155Z,1224.00
2022-10-03T07:20:14.197Z,1256.00
2022-10-03T07:21:16.881Z,1296.00
2022-10-03T07:22:14.165Z,1348.00
2022-10-03T07:23:14.164Z,1400.00
2022-10-03T07:24:14.168Z,1428.00
2022-10-03T07:25:14.184Z,1436.00
2022-10-03T07:26:14.171Z,1428.00
2022-10-03T07:27:14.166Z,1404.00
2022-10-03T07:28:14.226Z,1376.00
2022-10-03T07:29:14.210Z,1380.00
2022-10-03T07:30:14.170Z,1360.00
2022-10-03T07:31:14.267Z,1340.00
2022-10-03T07:32:14.182Z,1316.00
2022-10-03T07:33:14.184Z,1344.00
2022-10-03T07:34:12.252Z,1512.00
2022-10-03T07:35:12.253Z,1544.00
2022-10-03T07:36:12.255Z,2896.00
2022-10-03T07:37:14.228Z,2120.00
2022-10-03T07:38:12.249Z,3816.00
2022-10-03T07:39:12.248Z,2128.00
2022-10-03T07:40:14.218Z,3404.00
2022-10-03T07:41:12.249Z,1832.00
2022-10-03T07:42:14.220Z,1664.00
2022-10-03T07:43:12.300Z,1708.00
2022-10-03T07:44:13.690Z,1636.00
2022-10-03T07:45:14.204Z,1628.00
2022-10-03T07:46:12.333Z,1652.00
2022-10-03T07:47:14.210Z,1716.00
2022-10-03T07:48:12.226Z,1732.00
2022-10-03T07:49:17.652Z,1772.00
2022-10-03T07:50:14.203Z,1872.00
2022-10-03T07:51:13.224Z,2188.00
2022-10-03T07:52:12.222Z,2676.00
2022-10-03T07:53:14.189Z,2520.00
2022-10-03T07:54:13.244Z,2264.00
2022-10-03T07:55:14.227Z,2284.00
2022-10-03T07:56:13.221Z,3032.00
2022-10-03T07:57:14.190Z,3272.00
2022-10-03T07:58:12.219Z,3692.00
2022-10-03T07:59:14.196Z,3352.00
2022-10-03T08:00:13.738Z,2900.00
2022-10-03T08:01:14.188Z,2996.00
2022-10-03T08:02:13.244Z,3136.00
2022-10-03T08:03:13.824Z,3556.00
2022-10-03T08:04:13.706Z,3504.00
2022-10-03T08:05:13.709Z,3488.00
2022-10-03T08:06:13.222Z,3408.00
2022-10-03T08:07:13.706Z,3472.00
2022-10-03T08:08:13.702Z,3448.00
2022-10-03T08:09:13.725Z,3056.00
2022-10-03T08:10:14.230Z,3012.00
2022-10-03T08:11:12.216Z,2680.00
2022-10-03T08:12:12.184Z,2392.00
2022-10-03T08:13:12.205Z,2456.00
2022-10-03T08:14:13.194Z,3512.00
2022-10-03T08:15:13.189Z,3420.00
2022-10-03T08:16:13.269Z,3324.00
2022-10-03T08:17:12.179Z,2616.00
2022-10-03T08:18:12.194Z,2032.00
2022-10-03T08:19:13.237Z,1964.00
2022-10-03T08:20:13.178Z,3212.00
2022-10-03T08:21:13.714Z,3152.00
2022-10-03T08:22:13.757Z,3084.00
2022-10-03T08:23:13.717Z,3036.00
2022-10-03T08:24:13.231Z,3016.00
2022-10-03T08:25:13.728Z,3000.00
2022-10-03T08:26:13.745Z,2976.00
2022-10-03T08:27:13.751Z,2964.00
2022-10-03T08:28:13.846Z,2948.00
2022-10-03T08:29:13.721Z,2932.00
2022-10-03T08:30:13.737Z,2912.00
2022-10-03T08:31:13.804Z,2912.00
2022-10-03T08:32:13.750Z,2948.00
2022-10-03T08:33:13.723Z,3000.00
2022-10-03T08:34:13.740Z,3088.00
2022-10-03T08:35:13.734Z,3204.00
2022-10-03T08:36:13.728Z,3356.00
2022-10-03T08:37:13.736Z,3548.00
2022-10-03T08:38:13.768Z,3772.00
2022-10-03T08:39:13.737Z,4000.00
2022-10-03T08:40:13.759Z,3780.00
2022-10-03T08:41:13.759Z,3944.00
2022-10-03T08:42:12.159Z,3008.00
2022-10-03T08:43:13.748Z,2724.00
2022-10-03T08:44:12.166Z,2704.00
2022-10-03T08:45:13.747Z,2724.00
2022-10-03T08:46:12.264Z,2440.00
2022-10-03T08:47:12.153Z,2256.00
2022-10-03T08:48:12.150Z,2220.00
2022-10-03T08:49:12.158Z,2204.00
2022-10-03T08:50:13.778Z,2204.00
2022-10-03T08:51:12.150Z,2088.00
2022-10-03T08:52:13.752Z,2012.00
2022-10-03T08:53:13.772Z,2040.00
2022-10-03T08:54:13.164Z,2692.00
2022-10-03T08:55:13.752Z,2704.00
2022-10-03T08:56:13.754Z,2508.00
2022-10-03T08:57:13.756Z,2756.00
2022-10-03T08:58:13.744Z,2936.00
2022-10-03T08:59:13.745Z,2940.00
2022-10-03T09:00:13.767Z,2904.00
2022-10-03T09:01:13.953Z,2880.00
2022-10-03T09:02:13.867Z,2860.00
2022-10-03T09:03:33.026Z,2840.00
2022-10-03T09:04:12.143Z,2832.00
2022-10-03T09:05:13.782Z,2832.00
2022-10-03T09:06:13.772Z,2848.00
2022-10-03T09:07:17.529Z,2844.00
2022-10-03T09:08:13.756Z,2816.00
2022-10-03T09:09:13.775Z,2796.00
2022-10-03T09:10:13.777Z,2788.00
2022-10-03T09:11:13.756Z,2772.00
2022-10-03T09:12:13.791Z,2756.00
2022-10-03T09:13:13.785Z,2752.00
2022-10-03T09:14:13.783Z,2744.00
2022-10-03T09:15:13.779Z,2752.00
2022-10-03T09:16:18.217Z,2768.00
2022-10-03T09:17:12.163Z,2768.00
2022-10-03T09:18:13.796Z,2772.00
2022-10-03T09:19:13.153Z,2776.00
2022-10-03T09:20:12.139Z,2780.00
2022-10-03T09:21:12.144Z,2788.00
2022-10-03T09:22:12.156Z,2804.00
2022-10-03T09:23:13.825Z,2816.00
2022-10-03T09:24:13.174Z,2836.00
2022-10-03T09:25:12.135Z,2888.00
2022-10-03T09:26:13.795Z,2968.00
2022-10-03T09:27:12.148Z,3052.00
2022-10-03T09:28:13.862Z,3088.00
2022-10-03T09:29:13.148Z,3104.00
2022-10-03T09:30:13.806Z,3160.00
2022-10-03T09:31:13.883Z,3204.00
2022-10-03T09:32:13.776Z,3180.00
2022-10-03T09:33:13.827Z,3196.00
2022-10-03T09:34:13.799Z,3272.00
2022-10-03T09:35:13.781Z,3300.00
2022-10-03T09:36:13.801Z,3304.00
2022-10-03T09:37:13.786Z,3300.00
2022-10-03T09:38:13.813Z,3304.00
2022-10-03T09:39:13.787Z,3292.00
2022-10-03T09:40:16.970Z,3060.00
2022-10-03T09:41:13.815Z,2816.00
2022-10-03T09:42:13.794Z,2360.00
2022-10-03T09:43:13.811Z,2440.00
2022-10-03T09:44:13.813Z,2832.00
2022-10-03T09:45:13.791Z,3240.00
2022-10-03T09:46:13.191Z,3332.00
2022-10-03T09:47:13.797Z,3328.00
2022-10-03T09:48:13.309Z,3536.00
2022-10-03T09:49:13.810Z,3056.00
2022-10-03T09:50:13.812Z,3536.00
2022-10-03T09:51:13.849Z,3396.00
2022-10-03T09:52:12.153Z,3896.00
2022-10-03T09:53:13.840Z,3996.00
2022-10-03T09:54:13.159Z,4176.00
2022-10-03T09:55:13.808Z,3620.00
2022-10-03T09:56:13.144Z,4552.00
2022-10-03T09:57:13.803Z,4708.00
2022-10-03T09:58:13.857Z,4500.00
2022-10-03T09:59:13.208Z,4328.00
2022-10-03T10:00:13.821Z,4816.00
2022-10-03T10:01:13.892Z,4676.00
2022-10-03T10:02:12.136Z,4520.00
2022-10-03T10:13:22.046Z,3068.00
2022-10-03T10:14:21.516Z,2940.00
2022-10-03T10:15:21.425Z,2536.00
2022-10-03T10:16:20.457Z,3108.00
2022-10-03T10:17:22.001Z,2620.00
2022-10-03T10:18:21.420Z,3348.00
2022-10-03T10:19:22.018Z,3544.00
2022-10-03T10:20:22.529Z,3560.00
2022-10-03T10:21:20.416Z,3572.00
2022-10-03T10:22:22.017Z,3568.00
2022-10-03T10:23:22.022Z,3532.00
2022-10-03T10:24:22.016Z,3496.00
2022-10-03T10:25:22.041Z,3476.00
2022-10-03T10:26:21.432Z,3456.00
2022-10-03T10:27:22.045Z,3492.00
2022-10-03T10:28:22.138Z,3504.00
2022-10-03T10:29:20.460Z,3524.00
2022-10-03T10:30:22.027Z,3556.00
2022-10-03T10:31:20.532Z,3568.00
2022-10-03T10:32:22.055Z,3596.00
2022-10-03T10:33:22.022Z,3656.00
2022-10-03T10:34:20.432Z,3712.00
2022-10-03T10:35:22.037Z,3756.00
2022-10-03T10:36:22.024Z,3780.00
2022-10-03T10:37:22.041Z,3784.00
2022-10-03T10:38:20.450Z,3776.00
2022-10-03T10:39:22.052Z,3864.00
2022-10-03T10:40:22.046Z,3976.00
2022-10-03T10:41:22.033Z,4188.00
2022-10-03T10:42:24.067Z,4460.00
2022-10-03T10:43:22.057Z,4768.00
2022-10-03T10:44:22.061Z,5032.00
2022-10-03T10:45:22.067Z,5240.00
2022-10-03T10:46:22.104Z,5312.00
2022-10-03T10:47:22.053Z,5360.00
2022-10-03T10:48:22.039Z,5148.00
2022-10-03T10:49:22.039Z,5080.00
2022-10-03T10:50:22.067Z,5120.00
2022-10-03T10:51:22.043Z,4860.00
2022-10-03T10:52:22.038Z,4832.00
2022-10-03T10:53:22.075Z,4916.00
2022-10-03T10:54:22.067Z,4992.00
2022-10-03T10:55:22.121Z,4872.00
2022-10-03T10:56:22.066Z,4696.00
2022-10-03T10:57:22.060Z,4804.00
2022-10-03T10:58:22.059Z,2356.00
2022-10-03T10:59:22.070Z,2492.00
2022-10-03T11:00:22.076Z,5168.00
2022-10-03T11:01:22.134Z,5312.00
2022-10-03T11:02:22.055Z,5616.00
2022-10-03T11:03:22.063Z,5920.00
2022-10-03T11:04:22.099Z,6152.00
2022-10-03T11:05:22.063Z,5916.00
2022-10-03T11:06:21.583Z,5848.00
2022-10-03T11:07:20.510Z,3188.00
2022-10-03T11:08:20.504Z,3140.00
2022-10-03T11:09:20.517Z,3228.00
2022-10-03T11:10:20.520Z,3284.00
2022-10-03T11:11:22.086Z,5552.00
2022-10-03T11:12:22.062Z,6292.00
2022-10-03T11:13:20.520Z,6348.00
2022-10-03T11:14:22.080Z,6380.00
2022-10-03T11:15:22.074Z,5984.00
2022-10-03T11:16:22.176Z,4300.00
2022-10-03T11:17:22.111Z,5368.00
2022-10-03T11:18:22.075Z,3268.00
2022-10-03T11:19:22.090Z,4000.00
2022-10-03T11:20:22.087Z,4044.00
2022-10-03T11:21:22.086Z,4540.00
2022-10-03T11:22:22.082Z,6040.00
2022-10-03T11:23:22.106Z,4312.00
2022-10-03T11:24:22.082Z,3968.00
2022-10-03T11:25:22.122Z,3880.00
2022-10-03T11:26:20.557Z,4036.00
2022-10-03T11:27:20.577Z,4116.00
2022-10-03T11:28:26.373Z,4568.00
2022-10-03T11:29:20.582Z,4272.00
2022-10-03T11:30:21.621Z,7152.00
2022-10-03T11:31:22.684Z,5100.00
2022-10-03T11:32:20.580Z,5008.00
2022-10-03T11:33:20.590Z,4472.00
2022-10-03T11:34:20.599Z,5296.00
2022-10-03T11:35:20.623Z,5652.00
2022-10-03T11:36:22.106Z,8240.00
2022-10-03T11:37:20.622Z,8092.00
2022-10-03T11:38:20.604Z,3440.00
2022-10-03T11:39:20.591Z,3640.00
2022-10-03T11:40:20.616Z,3020.00
2022-10-03T11:41:22.115Z,2664.00
2022-10-03T11:42:22.119Z,4964.00
2022-10-03T11:43:20.609Z,3164.00
2022-10-03T11:44:20.666Z,3712.00
2022-10-03T11:45:21.656Z,8384.00
2022-10-03T11:46:22.613Z,4240.00
2022-10-03T11:47:22.137Z,4276.00
2022-10-03T11:48:20.631Z,6800.00
2022-10-03T11:49:22.133Z,6012.00
2022-10-03T11:50:21.635Z,4500.00
2022-10-03T11:51:22.626Z,3832.00
2022-10-03T11:52:20.650Z,3264.00
2022-10-03T11:53:22.642Z,3472.00
2022-10-03T11:54:31.996Z,2716.00
2022-10-03T11:55:20.628Z,2544.00
2022-10-03T11:56:22.625Z,2420.00
2022-10-03T11:57:20.647Z,2548.00
2022-10-03T11:58:22.140Z,2904.00
2022-10-03T11:59:23.760Z,2676.00
2022-10-03T12:00:22.622Z,3348.00
2022-10-03T12:01:20.650Z,3824.00
2022-10-03T12:02:22.645Z,4472.00
2022-10-03T12:03:22.710Z,4648.00
2022-10-03T12:04:21.647Z,5076.00
2022-10-03T12:05:22.144Z,5040.00
2022-10-03T12:06:21.649Z,6528.00
2022-10-03T12:07:22.641Z,6348.00
2022-10-03T12:08:23.160Z,7976.00
2022-10-03T12:09:20.656Z,9744.00
2022-10-03T12:10:20.691Z,9432.00
2022-10-03T12:11:20.674Z,9204.00
2022-10-03T12:12:20.664Z,8708.00
2022-10-03T12:13:22.651Z,7276.00
2022-10-03T12:14:22.644Z,10932.00
2022-10-03T12:15:22.633Z,8500.00
2022-10-03T12:16:22.656Z,10272.00
2022-10-03T12:17:20.687Z,10928.00
2022-10-03T12:18:22.664Z,11788.00
2022-10-03T12:19:22.680Z,12040.00
2022-10-03T12:20:22.650Z,8016.00
2022-10-03T12:21:22.264Z,5772.00
2022-10-03T12:22:22.636Z,5556.00
2022-10-03T12:23:22.660Z,11716.00
2022-10-03T12:24:20.684Z,11956.00
2022-10-03T12:25:22.667Z,11996.00
2022-10-03T12:26:22.642Z,12260.00
2022-10-03T12:27:22.658Z,13496.00
2022-10-03T12:28:22.691Z,12928.00
2022-10-03T12:29:22.647Z,13492.00
2022-10-03T12:30:22.688Z,10164.00
2022-10-03T12:31:22.755Z,10364.00
2022-10-03T12:32:22.656Z,10476.00
2022-10-03T12:33:22.648Z,52160.00
2022-10-03T12:34:22.666Z,40416.00
2022-10-03T12:35:20.727Z,33664.00
2022-10-03T12:36:20.725Z,14876.00
2022-10-03T12:37:20.748Z,31424.00
2022-10-03T12:38:20.737Z,28832.00
2022-10-03T12:39:22.709Z,36896.00
2022-10-03T12:40:20.742Z,44736.00
2022-10-03T12:41:20.747Z,45856.00
2022-10-03T12:42:20.732Z,41440.00
2022-10-03T12:43:20.751Z,45472.00
2022-10-03T12:44:22.679Z,16424.00
2022-10-03T12:45:22.175Z,26848.00
2022-10-03T12:46:22.736Z,15604.00
2022-10-03T12:47:37.721Z,16728.00
2022-10-03T12:48:22.688Z,18044.00
2022-10-03T12:49:20.758Z,12812.00
2022-10-03T12:50:24.206Z,7896.00
2022-10-03T12:51:22.668Z,11804.00
2022-10-03T12:52:23.693Z,15432.00
2022-10-03T12:53:22.674Z,30496.00
2022-10-03T12:54:26.472Z,29696.00
2022-10-03T12:55:23.674Z,7996.00
2022-10-03T12:56:22.682Z,7288.00
2022-10-03T12:57:22.677Z,4420.00
2022-10-03T12:58:22.700Z,4664.00
2022-10-03T12:59:22.713Z,5756.00
2022-10-03T13:00:22.679Z,2728.00
2022-10-03T13:01:22.704Z,2540.00
2022-10-03T13:02:22.863Z,3296.00
2022-10-03T13:03:22.688Z,3944.00
2022-10-03T13:04:22.696Z,4528.00
2022-10-03T13:05:22.697Z,13008.00
2022-10-03T13:06:38.829Z,5852.00
2022-10-03T13:07:22.707Z,5440.00
2022-10-03T13:08:22.817Z,5668.00
2022-10-03T13:09:22.690Z,5444.00
2022-10-03T13:10:22.728Z,6308.00
2022-10-03T13:11:20.834Z,6304.00
2022-10-03T13:12:25.428Z,5556.00
2022-10-03T13:13:20.845Z,6344.00
2022-10-03T13:14:20.841Z,7892.00
2022-10-03T13:15:22.220Z,12424.00
2022-10-03T13:16:20.932Z,27552.00
2022-10-03T13:17:20.847Z,7020.00
2022-10-03T13:18:20.851Z,7056.00
2022-10-03T13:19:21.854Z,4492.00
2022-10-03T13:20:20.861Z,3688.00
2022-10-03T13:21:44.422Z,3208.00
2022-10-03T13:22:20.871Z,2984.00
2022-10-03T13:23:22.712Z,3124.00
2022-10-03T13:24:21.876Z,3108.00
2022-10-03T13:25:20.866Z,3212.00
2022-10-03T13:26:22.733Z,3292.00
2022-10-03T13:27:20.867Z,3200.00
2022-10-03T13:28:24.342Z,3032.00
2022-10-03T13:29:22.724Z,2956.00
2022-10-03T13:30:20.896Z,2892.00
2022-10-03T13:31:22.814Z,2976.00
2022-10-03T13:32:20.904Z,3148.00
2022-10-03T13:33:22.713Z,3004.00
2022-10-03T13:34:21.882Z,2076.00
2022-10-03T13:35:22.748Z,1980.00
2022-10-03T13:36:21.897Z,1884.00
2022-10-03T13:37:20.882Z,1880.00
2022-10-03T13:38:22.719Z,1740.00
2022-10-03T13:39:21.893Z,1820.00
2022-10-03T13:40:22.255Z,1872.00
2022-10-03T13:41:20.890Z,1928.00
2022-10-03T13:42:22.752Z,2084.00
2022-10-03T13:43:20.901Z,2256.00
2022-10-03T13:44:20.899Z,2148.00
2022-10-03T13:45:22.243Z,2448.00
2022-10-03T13:46:21.989Z,3716.00
2022-10-03T13:47:22.763Z,14644.00
2022-10-03T13:48:21.893Z,32832.00
2022-10-03T13:49:22.783Z,18912.00
2022-10-03T13:50:22.747Z,32384.00
2022-10-03T13:51:22.755Z,6860.00
2022-10-03T13:52:22.758Z,8556.00
2022-10-03T13:53:22.756Z,5688.00
2022-10-03T13:54:20.901Z,4968.00
2022-10-03T13:55:22.737Z,4468.00
2022-10-03T13:56:22.759Z,3848.00
2022-10-03T13:57:22.749Z,2948.00
2022-10-03T13:58:22.788Z,2532.00
2022-10-03T13:59:22.379Z,2472.00
2022-10-03T14:00:22.743Z,2612.00
2022-10-03T14:01:22.809Z,2764.00
2022-10-03T14:02:20.945Z,2888.00
2022-10-03T14:03:22.809Z,2684.00
2022-10-03T14:04:20.902Z,2932.00
2022-10-03T14:05:20.927Z,3172.00
2022-10-03T14:06:22.267Z,4060.00
2022-10-03T14:07:20.912Z,5996.00
2022-10-03T14:08:22.767Z,9884.00
2022-10-03T14:09:23.274Z,5476.00
2022-10-03T14:10:20.912Z,5212.00
2022-10-03T14:11:20.905Z,5288.00
2022-10-03T14:12:33.125Z,5192.00
2022-10-03T14:13:20.911Z,6484.00
2022-10-03T14:14:22.781Z,4520.00
2022-10-03T14:15:20.904Z,5648.00
2022-10-03T14:16:20.974Z,5716.00
2022-10-03T14:17:22.804Z,9672.00
2022-10-03T14:18:22.803Z,6256.00
2022-10-03T14:19:22.271Z,8360.00
2022-10-03T14:20:22.784Z,3272.00
2022-10-03T14:21:22.775Z,1992.00
2022-10-03T14:22:22.778Z,2496.00
2022-10-03T14:23:22.796Z,2472.00
2022-10-03T14:24:22.794Z,4164.00
2022-10-03T14:25:22.909Z,3780.00
2022-10-03T14:26:22.781Z,5732.00
2022-10-03T14:27:22.783Z,3792.00
2022-10-03T14:28:22.928Z,1748.00
2022-10-03T14:29:22.801Z,1724.00
2022-10-03T14:30:22.775Z,1836.00
2022-10-03T14:31:22.015Z,1908.00
2022-10-03T14:32:46.080Z,2024.00
2022-10-03T14:33:22.777Z,2300.00
2022-10-03T14:34:22.804Z,2640.00
2022-10-03T14:35:22.827Z,2904.00
2022-10-03T14:36:22.812Z,2872.00
2022-10-03T14:37:22.785Z,2868.00
2022-10-03T14:38:22.791Z,2656.00
2022-10-03T14:39:22.781Z,2500.00
2022-10-03T14:40:22.787Z,2548.00
2022-10-03T14:41:22.817Z,2712.00
2022-10-03T14:42:22.787Z,3116.00
2022-10-03T14:43:22.794Z,5088.00
2022-10-03T14:44:22.813Z,8392.00
2022-10-03T14:45:20.892Z,9124.00
2022-10-03T14:46:22.372Z,6464.00
2022-10-03T14:47:20.885Z,11512.00
2022-10-03T14:48:21.888Z,6452.00
2022-10-03T14:49:48.510Z,7268.00
2022-10-03T14:50:22.814Z,5800.00
2022-10-03T14:51:20.893Z,4936.00
2022-10-03T14:52:20.890Z,4276.00
2022-10-03T14:53:20.891Z,4160.00
2022-10-03T14:54:20.889Z,3912.00
2022-10-03T14:55:25.280Z,3844.00
2022-10-03T14:56:21.911Z,3216.00
2022-10-03T14:57:22.335Z,2980.00
2022-10-03T14:58:21.889Z,2776.00
2022-10-03T14:59:20.951Z,2560.00
2022-10-03T15:01:21.881Z,2160.00
2022-10-03T15:02:20.921Z,2040.00
2022-10-03T15:03:22.891Z,1980.00
2022-10-03T15:04:22.329Z,1896.00
2022-10-03T15:05:22.831Z,1800.00
2022-10-03T15:06:23.318Z,1740.00
2022-10-03T15:07:20.885Z,1712.00
2022-10-03T15:08:22.812Z,1716.00
2022-10-03T15:09:22.815Z,1800.00
2022-10-03T15:10:22.810Z,1980.00
2022-10-03T15:11:22.828Z,2220.00
2022-10-03T15:12:22.808Z,2428.00
2022-10-03T15:13:22.810Z,2512.00
2022-10-03T15:14:22.818Z,2520.00
2022-10-03T15:15:22.824Z,2508.00
2022-10-03T15:16:23.066Z,2496.00
2022-10-03T15:17:22.827Z,2476.00
2022-10-03T15:18:22.847Z,2432.00
2022-10-03T15:19:20.869Z,2400.00
2022-10-03T15:20:22.828Z,2380.00
2022-10-03T15:21:22.330Z,2380.00
2022-10-03T15:22:20.865Z,2384.00
2022-10-03T15:23:22.845Z,2360.00
2022-10-03T15:24:25.289Z,2312.00
2022-10-03T15:25:22.828Z,2216.00
2022-10-03T15:26:21.865Z,2128.00
2022-10-03T15:27:22.827Z,2044.00
2022-10-03T15:28:22.900Z,1968.00
2022-10-03T15:29:22.858Z,1908.00
2022-10-03T15:30:24.220Z,1868.00
2022-10-03T15:31:22.886Z,1816.00
2022-10-03T15:32:20.848Z,1820.00
2022-10-03T15:33:22.852Z,1836.00
2022-10-03T15:34:22.854Z,1868.00
2022-10-03T15:35:22.833Z,1872.00
2022-10-03T15:36:22.841Z,1864.00
2022-10-03T15:37:22.837Z,1856.00
2022-10-03T15:38:20.843Z,1848.00
2022-10-03T15:39:22.354Z,1844.00
2022-10-03T15:40:21.849Z,1860.00
2022-10-03T15:41:20.849Z,1880.00
2022-10-03T15:42:20.836Z,1880.00
2022-10-03T15:43:21.853Z,1844.00
2022-10-03T15:44:20.847Z,1772.00
2022-10-03T15:45:20.841Z,1712.00
2022-10-03T15:46:21.976Z,1656.00
2022-10-03T15:47:20.954Z,1620.00
2022-10-03T15:48:20.823Z,1564.00
2022-10-03T15:49:20.854Z,1544.00
2022-10-03T15:50:20.985Z,1580.00
2022-10-03T15:51:22.363Z,1624.00
2022-10-03T15:52:20.820Z,1632.00
2022-10-03T15:53:37.364Z,1612.00
2022-10-03T15:54:20.821Z,1572.00
2022-10-03T15:55:21.825Z,1528.00
2022-10-03T15:56:22.009Z,1472.00
2022-10-03T15:57:22.372Z,1396.00
2022-10-03T15:58:22.385Z,1332.00
2022-10-03T15:59:21.863Z,1280.00
2022-10-03T16:00:22.378Z,1240.00
2022-10-03T16:12:29.527Z,892.00
2022-10-03T16:13:29.497Z,848.00
2022-10-03T16:14:29.531Z,800.00
2022-10-03T16:15:27.873Z,744.00
2022-10-03T16:16:29.552Z,700.00
2022-10-03T16:17:29.512Z,668.00
2022-10-03T16:18:29.512Z,660.00
2022-10-03T16:19:27.861Z,660.00
2022-10-03T16:20:29.506Z,668.00
2022-10-03T16:21:29.573Z,676.00
2022-10-03T16:22:29.534Z,684.00
2022-10-03T16:23:29.511Z,680.00
2022-10-03T16:24:29.508Z,676.00
2022-10-03T16:25:29.538Z,664.00
2022-10-03T16:26:29.529Z,644.00
2022-10-03T16:27:29.526Z,628.00
2022-10-03T16:28:29.701Z,604.00
2022-10-03T16:29:29.510Z,572.00
2022-10-03T16:30:29.541Z,544.00
2022-10-03T16:31:29.578Z,516.00
2022-10-03T16:32:29.538Z,484.00
2022-10-03T16:33:29.514Z,452.00
2022-10-03T16:34:28.539Z,428.00
2022-10-03T16:35:29.061Z,404.00
2022-10-03T16:36:27.827Z,384.00